Time;durP1;ratioP1;P1;durP2;ratioP2;P2;SDS_P1;SDS_P2;PMS_P1;PMS_P2;Temp;Humidity;BMP_temperature;BMP_pressure;BME280_temperature;BME280_humidity;BME280_pressure;Samples;Min_cycle;Max_cycle;Signal;HPM_P1;HPM_P2
2023/12/27 00:12:30;;;;;;;22.00;8.10;;;;;;;6.42;91.54;99609.83;679796;1260;140994;-81
2023/12/27 00:27:34;;;;;;;25.60;7.50;;;;;;;6.49;90.34;99641.58;679978;1266;138738;-81
2023/12/27 00:42:38;;;;;;;18.60;5.70;;;;;;;6.39;89.64;99650.17;679973;1260;141437;-80
2023/12/27 00:57:45;;;;;;;33.80;9.50;;;;;;;6.25;88.70;99665.36;675548;1270;139481;-80
2023/12/27 01:12:50;;;;;;;12.70;3.80;;;;;;;6.05;88.19;99696.77;675193;1265;139832;-81
2023/12/27 01:27:53;;;;;;;34.20;9.00;;;;;;;5.94;88.76;99720.49;679032;1264;138891;-81
2023/12/27 01:42:57;;;;;;;17.50;4.70;;;;;;;6.06;88.69;99727.60;676099;1267;138865;-80
2023/12/27 01:58:08;;;;;;;10.50;3.20;;;;;;;6.19;88.14;99730.95;680503;1261;140149;-81
2023/12/27 02:13:13;;;;;;;;;;;;;;;6.20;88.21;99760.88;677100;1262;139394;-80
2023/12/27 02:28:17;;;;;;;8.70;3.00;;;;;;;6.30;87.91;99768.14;678862;1263;126424;-81
2023/12/27 02:43:21;;;;;;;10.90;2.70;;;;;;;6.31;87.08;99777.23;678271;1267;138692;-81
2023/12/27 02:58:25;;;;;;;6.60;1.60;;;;;;;6.42;87.34;99801.91;678251;1266;139676;-81
2023/12/27 03:13:29;;;;;;;10.40;2.60;;;;;;;6.57;87.03;99819.70;680334;1264;138780;-81
2023/12/27 03:28:33;;;;;;;7.80;2.40;;;;;;;6.71;86.82;99846.73;679063;1264;138986;-82
2023/12/27 03:43:36;;;;;;;8.50;2.50;;;;;;;6.71;85.97;99868.12;677307;1277;138675;-82
2023/12/27 03:58:43;;;;;;;7.40;2.00;;;;;;;6.55;84.87;99885.69;678919;1260;138916;-83
2023/12/27 04:13:46;;;;;;;7.10;2.70;;;;;;;6.38;84.96;99915.48;677156;1264;138766;-80
2023/12/27 04:28:50;;;;;;;78.90;60.10;;;;;;;6.23;84.86;99940.08;674070;1260;139473;-81
2023/12/27 04:43:55;;;;;;;21.10;9.80;;;;;;;6.17;85.64;99965.56;678083;1265;139600;-81
2023/12/27 04:58:59;;;;;;;28.90;8.60;;;;;;;6.14;85.83;99989.17;675780;1264;139871;-82
2023/12/27 05:14:03;;;;;;;14.10;5.20;;;;;;;6.30;86.22;100012.12;679493;1264;140389;-82
2023/12/27 05:29:08;;;;;;;11.10;3.80;;;;;;;6.34;86.39;100043.79;676815;1261;142777;-83
2023/12/27 05:44:12;;;;;;;9.00;2.90;;;;;;;6.37;86.19;100081.77;673375;1260;139637;-81
2023/12/27 05:59:17;;;;;;;15.70;4.20;;;;;;;6.46;86.45;100113.30;673159;1262;139657;-81
2023/12/27 06:14:21;;;;;;;7.50;3.50;;;;;;;6.47;85.96;100144.68;679020;1264;140831;-82
2023/12/27 06:29:24;;;;;;;20.00;4.00;;;;;;;6.36;86.35;100164.00;679972;1260;139533;-82
2023/12/27 06:44:28;;;;;;;14.60;4.50;;;;;;;6.31;86.84;100179.35;680549;1262;139472;-82
2023/12/27 06:59:32;;;;;;;18.30;5.90;;;;;;;6.25;86.79;100218.13;680135;1263;139796;-81
2023/12/27 07:14:36;;;;;;;13.50;4.00;;;;;;;6.34;86.56;100267.04;680868;1263;139890;-83
2023/12/27 07:29:40;;;;;;;11.10;3.00;;;;;;;6.33;86.96;100297.30;678440;1265;139489;-81
2023/12/27 07:44:45;;;;;;;12.90;4.40;;;;;;;6.13;87.64;100323.90;674966;1275;141635;-80
2023/12/27 07:59:55;;;;;;;16.50;4.80;;;;;;;6.25;87.33;100348.40;678705;1262;139945;-82
2023/12/27 08:14:58;;;;;;;13.10;3.90;;;;;;;6.22;87.67;100383.54;679186;1263;139769;-82
2023/12/27 08:30:05;;;;;;;12.00;5.20;;;;;;;6.32;87.82;100414.95;674101;1273;140241;-82
2023/12/27 08:45:11;;;;;;;16.80;5.10;;;;;;;6.32;87.85;100451.98;678618;1262;140624;-82
2023/12/27 09:00:20;;;;;;;15.70;5.10;;;;;;;6.36;88.02;100477.23;678720;1263;141598;-82
2023/12/27 09:15:25;;;;;;;27.00;6.60;;;;;;;6.50;87.83;100488.82;680041;1263;195929;-83
2023/12/27 09:30:30;;;;;;;17.90;5.10;;;;;;;6.74;86.63;100508.23;678762;1265;140353;-83
2023/12/27 09:45:38;;;;;;;30.90;12.60;;;;;;;6.84;85.15;100523.88;677061;1263;140260;-84
2023/12/27 10:00:45;;;;;;;27.10;11.10;;;;;;;6.92;84.33;100533.23;680425;1262;140194;-84
2023/12/27 10:15:50;;;;;;;37.10;11.30;;;;;;;7.45;84.07;100520.48;679744;1265;139689;-83
2023/12/27 10:30:54;;;;;;;35.10;15.00;;;;;;;9.26;81.23;100531.02;678339;1262;139955;-83
2023/12/27 10:45:59;;;;;;;18.20;6.10;;;;;;;8.77;79.08;100537.91;680403;1263;139924;-83
2023/12/27 11:01:04;;;;;;;33.40;14.00;;;;;;;8.21;78.69;100546.77;681466;1265;140099;-81
2023/12/27 11:16:09;;;;;;;17.80;5.00;;;;;;;8.56;78.38;100547.50;676420;1265;139860;-84
2023/12/27 11:31:14;;;;;;;12.60;8.30;;;;;;;9.76;77.28;100556.92;678207;1270;139470;-83
2023/12/27 11:46:25;;;;;;;12.60;3.60;;;;;;;9.16;74.25;100566.46;673322;1267;139543;-84
2023/12/27 12:01:31;;;;;;;25.00;9.00;;;;;;;8.22;73.70;100579.95;669941;1266;139513;-85
2023/12/27 12:16:36;;;;;;;13.70;6.10;;;;;;;7.75;73.58;100584.39;671955;1265;139536;-84
2023/12/27 12:31:41;;;;;;;21.60;11.00;;;;;;;7.76;73.82;100598.74;673552;1265;139951;-84
2023/12/27 12:46:47;;;;;;;43.10;16.70;;;;;;;8.19;74.68;100601.74;671140;1261;140253;-84
2023/12/27 13:01:51;;;;;;;31.60;12.10;;;;;;;8.17;73.36;100606.66;676116;1265;139110;-84
2023/12/27 13:16:55;;;;;;;47.30;15.80;;;;;;;7.98;72.65;100612.39;679870;1269;140276;-85
2023/12/27 13:32:02;;;;;;;22.70;9.10;;;;;;;7.75;72.28;100624.09;675783;1262;140954;-85
2023/12/27 13:47:07;;;;;;;9.30;4.50;;;;;;;7.70;72.05;100648.48;680349;1264;139810;-84
2023/12/27 14:02:12;;;;;;;17.80;7.20;;;;;;;7.27;71.95;100662.34;679707;1264;138809;-84
2023/12/27 14:17:16;;;;;;;16.60;5.20;;;;;;;7.10;71.98;100672.89;676471;1265;139176;-84
2023/12/27 14:32:21;;;;;;;45.70;19.00;;;;;;;6.82;71.47;100685.18;679255;1263;140247;-83
2023/12/27 14:47:25;;;;;;;27.10;10.90;;;;;;;6.50;71.81;100703.21;677928;1266;139297;-83
2023/12/27 15:02:28;;;;;;;98.50;36.10;;;;;;;6.17;71.62;100721.84;679704;1265;139790;-84
2023/12/27 15:17:35;;;;;;;70.30;26.40;;;;;;;5.92;72.08;100739.32;679882;1265;139779;-84
2023/12/27 15:32:38;;;;;;;96.70;26.20;;;;;;;5.70;71.99;100746.71;680905;1265;140249;-82
2023/12/27 15:47:44;;;;;;;135.90;32.30;;;;;;;5.34;72.67;100748.50;680835;1266;139810;-82
2023/12/27 16:02:48;;;;;;;50.00;14.10;;;;;;;5.05;72.99;100753.42;678901;1265;139313;-81
2023/12/27 16:17:53;;;;;;;78.90;25.50;;;;;;;4.91;73.44;100763.64;675636;1267;139250;-83
2023/12/27 16:32:57;;;;;;;256.70;82.90;;;;;;;4.83;73.65;100778.09;680228;1276;139794;-83
2023/12/27 16:48:04;;;;;;;75.70;26.70;;;;;;;4.65;73.99;100788.28;681011;1273;139924;-83
2023/12/27 17:03:10;;;;;;;58.00;22.00;;;;;;;4.30;74.78;100782.69;680105;1266;139210;-82
2023/12/27 17:18:15;;;;;;;97.40;37.90;;;;;;;4.01;75.01;100773.67;680087;1265;140261;-83
2023/12/27 17:33:20;;;;;;;112.50;65.90;;;;;;;3.59;76.36;100768.73;679513;1264;140198;-82
2023/12/27 17:48:24;;;;;;;38.40;16.50;;;;;;;3.33;78.09;100774.36;677997;1266;140563;-81
2023/12/27 18:03:31;;;;;;;51.80;18.80;;;;;;;3.20;79.06;100784.70;680498;1265;140181;-82
2023/12/27 18:18:37;;;;;;;90.80;33.40;;;;;;;3.17;80.82;100783.13;681604;1266;139887;-81
2023/12/27 18:33:40;;;;;;;51.00;21.30;;;;;;;3.19;82.26;100776.62;680373;1263;139683;-82
2023/12/27 18:48:46;;;;;;;41.60;17.40;;;;;;;3.22;83.16;100777.87;680296;1261;139854;-81
2023/12/27 19:03:53;;;;;;;74.70;26.90;;;;;;;3.45;83.67;100806.94;680332;1261;139527;-81
2023/12/27 19:18:58;;;;;;;67.00;30.10;;;;;;;3.09;84.18;100822.04;680586;1262;139615;-81
2023/12/27 19:34:03;;;;;;;73.10;31.00;;;;;;;2.92;85.26;100802.29;679963;1261;139399;-82
2023/12/27 19:49:08;;;;;;;41.30;19.00;;;;;;;2.85;85.99;100794.69;681479;1264;139639;-84
2023/12/27 20:04:12;;;;;;;49.50;19.80;;;;;;;2.80;86.37;100786.09;680192;1276;139665;-80
2023/12/27 20:19:18;;;;;;;47.80;18.20;;;;;;;2.72;86.62;100793.89;681427;1261;139523;-80
2023/12/27 20:34:22;;;;;;;45.40;20.20;;;;;;;2.58;86.34;100793.85;681088;1269;139842;-81
2023/12/27 20:49:28;;;;;;;53.50;25.40;;;;;;;2.44;86.82;100780.52;677772;1264;139690;-80
2023/12/27 21:04:40;;;;;;;47.40;19.10;;;;;;;2.27;87.15;100772.99;678273;1262;139896;-81
2023/12/27 21:19:45;;;;;;;44.10;15.10;;;;;;;2.29;87.08;100763.42;680187;1261;196205;-81
2023/12/27 21:34:49;;;;;;;140.50;46.80;;;;;;;2.34;87.26;100760.27;681112;1263;139895;-81
2023/12/27 21:49:57;;;;;;;372.90;128.00;;;;;;;2.22;86.85;100772.38;678362;1260;140098;-80
2023/12/27 22:05:01;;;;;;;110.20;37.60;;;;;;;2.21;86.53;100756.17;679553;1266;139629;-81
2023/12/27 22:20:08;;;;;;;173.80;47.80;;;;;;;2.53;89.31;100708.09;677808;1264;140079;-81
2023/12/27 22:35:13;;;;;;;89.90;30.80;;;;;;;2.75;89.91;100686.49;678380;1264;139124;-80
2023/12/27 22:50:18;;;;;;;110.00;44.30;;;;;;;2.88;91.48;100656.29;679440;1264;139376;-82
2023/12/27 23:05:25;;;;;;;72.60;25.80;;;;;;;3.07;91.57;100650.33;679987;1265;140563;-81
2023/12/27 23:20:29;;;;;;;42.30;15.90;;;;;;;3.13;91.13;100622.38;676560;1261;140515;-81
2023/12/27 23:35:33;;;;;;;42.80;17.40;;;;;;;3.20;91.53;100602.12;677389;1275;139552;-81
2023/12/27 23:50:37;;;;;;;46.90;19.90;;;;;;;3.30;91.88;100630.86;674986;1263;139178;-81
